Terminal Aerodrome Forecast
Issued by NWS

Home | Current Version | Previous Version | Graphics & Text | Print | Product List | Glossary On
Versions: 1 2 3 4 5 6 7 8 9 10 11 12 13
000
FTUS43 KTOP 271100
TAFFOE
TAF
KFOE 271128Z 2712/2812 30013KT P6SM OVC012
     FM271400 32012KT P6SM BKN023
     FM271800 32011KT P6SM BKN035
     FM272300 31003KT P6SM FEW200=

USA.gov is the U.S. government's official web portal to all federal, state and local government web resources and services.